sensor_id;sensor_type;location;lat;lon;timestamp;temperature;humidity
54558;DHT22;40452;50.080;20.040;2023-03-17T03:50:37;20.80;38.00
54558;DHT22;40452;50.080;20.040;2023-03-17T03:53:03;20.80;38.60
54558;DHT22;40452;50.080;20.040;2023-03-17T03:55:28;20.80;38.50
54558;DHT22;40452;50.080;20.040;2023-03-17T03:57:54;20.80;38.50
54558;DHT22;40452;50.080;20.040;2023-03-17T04:00:20;20.80;38.50
54558;DHT22;40452;50.080;20.040;2023-03-17T04:02:46;20.80;38.40
54558;DHT22;40452;50.080;20.040;2023-03-17T04:05:13;20.80;38.30
54558;DHT22;40452;50.080;20.040;2023-03-17T04:07:38;20.90;38.10
54558;DHT22;40452;50.080;20.040;2023-03-17T04:10:05;20.90;38.00
54558;DHT22;40452;50.080;20.040;2023-03-17T04:12:31;20.90;37.80
54558;DHT22;40452;50.080;20.040;2023-03-17T04:14:57;20.90;37.70
54558;DHT22;40452;50.080;20.040;2023-03-17T04:17:25;21.00;37.80
54558;DHT22;40452;50.080;20.040;2023-03-17T04:19:59;21.00;37.70
54558;DHT22;40452;50.080;20.040;2023-03-17T04:22:27;21.00;37.80
54558;DHT22;40452;50.080;20.040;2023-03-17T04:24:58;21.10;37.80
54558;DHT22;40452;50.080;20.040;2023-03-17T04:27:42;21.10;37.90
54558;DHT22;40452;50.080;20.040;2023-03-17T04:30:12;21.10;38.00
54558;DHT22;40452;50.080;20.040;2023-03-17T04:32:39;21.10;38.00
54558;DHT22;40452;50.080;20.040;2023-03-17T04:35:05;21.00;38.00
54558;DHT22;40452;50.080;20.040;2023-03-17T04:40:29;21.00;38.00
54558;DHT22;40452;50.080;20.040;2023-03-17T04:42:55;21.00;37.60
54558;DHT22;40452;50.080;20.040;2023-03-17T04:45:27;21.00;37.40
54558;DHT22;40452;50.080;20.040;2023-03-17T04:47:52;21.00;37.60
54558;DHT22;40452;50.080;20.040;2023-03-17T04:50:18;21.00;37.70
54558;DHT22;40452;50.080;20.040;2023-03-17T04:52:43;21.00;37.70
54558;DHT22;40452;50.080;20.040;2023-03-17T04:55:09;21.00;37.60
54558;DHT22;40452;50.080;20.040;2023-03-17T04:57:36;21.00;37.60
54558;DHT22;40452;50.080;20.040;2023-03-17T05:00:09;21.20;37.70
54558;DHT22;40452;50.080;20.040;2023-03-17T05:02:39;21.00;37.60
54558;DHT22;40452;50.080;20.040;2023-03-17T05:05:08;21.00;37.60
54558;DHT22;40452;50.080;20.040;2023-03-17T05:07:36;21.10;37.60
54558;DHT22;40452;50.080;20.040;2023-03-17T05:10:02;21.00;37.60
54558;DHT22;40452;50.080;20.040;2023-03-17T05:12:39;21.00;37.60
54558;DHT22;40452;50.080;20.040;2023-03-17T05:15:05;21.10;37.60
54558;DHT22;40452;50.080;20.040;2023-03-17T05:17:30;21.00;37.50
54558;DHT22;40452;50.080;20.040;2023-03-17T05:19:58;21.10;37.60
54558;DHT22;40452;50.080;20.040;2023-03-17T05:22:27;21.10;37.60
54558;DHT22;40452;50.080;20.040;2023-03-17T05:24:52;21.10;37.60
54558;DHT22;40452;50.080;20.040;2023-03-17T05:27:18;21.10;37.60
54558;DHT22;40452;50.080;20.040;2023-03-17T05:29:52;21.10;37.50
54558;DHT22;40452;50.080;20.040;2023-03-17T05:32:18;21.00;37.50
54558;DHT22;40452;50.080;20.040;2023-03-17T05:34:49;21.10;37.60
54558;DHT22;40452;50.080;20.040;2023-03-17T05:37:15;21.10;37.60
54558;DHT22;40452;50.080;20.040;2023-03-17T05:39:45;21.10;37.50
54558;DHT22;40452;50.080;20.040;2023-03-17T05:42:11;21.10;37.50
54558;DHT22;40452;50.080;20.040;2023-03-17T05:44:37;21.10;37.50
54558;DHT22;40452;50.080;20.040;2023-03-17T05:47:02;21.10;37.00
54558;DHT22;40452;50.080;20.040;2023-03-17T05:49:28;21.10;37.40
54558;DHT22;40452;50.080;20.040;2023-03-17T05:51:54;21.10;37.50
54558;DHT22;40452;50.080;20.040;2023-03-17T05:54:20;21.10;37.50
54558;DHT22;40452;50.080;20.040;2023-03-17T05:56:49;21.10;37.30
54558;DHT22;40452;50.080;20.040;2023-03-17T05:59:14;21.10;37.30
54558;DHT22;40452;50.080;20.040;2023-03-17T06:01:42;21.10;37.40
54558;DHT22;40452;50.080;20.040;2023-03-17T06:04:08;20.30;31.60
54558;DHT22;40452;50.080;20.040;2023-03-17T06:06:36;17.20;31.70
54558;DHT22;40452;50.080;20.040;2023-03-17T06:09:03;15.40;33.40
54558;DHT22;40452;50.080;20.040;2023-03-17T06:11:31;14.20;34.50
54558;DHT22;40452;50.080;20.040;2023-03-17T06:13:57;13.30;35.20
54558;DHT22;40452;50.080;20.040;2023-03-17T06:16:22;12.90;35.70
54558;DHT22;40452;50.080;20.040;2023-03-17T06:18:48;12.40;36.20
54558;DHT22;40452;50.080;20.040;2023-03-17T06:21:14;12.00;36.60
54558;DHT22;40452;50.080;20.040;2023-03-17T06:23:40;11.80;37.20
54558;DHT22;40452;50.080;20.040;2023-03-17T06:26:06;11.90;37.10
54558;DHT22;40452;50.080;20.040;2023-03-17T06:28:31;11.70;37.50
54558;DHT22;40452;50.080;20.040;2023-03-17T06:30:57;11.50;37.80
54558;DHT22;40452;50.080;20.040;2023-03-17T06:33:25;11.50;37.70
54558;DHT22;40452;50.080;20.040;2023-03-17T06:35:53;11.30;37.60
54558;DHT22;40452;50.080;20.040;2023-03-17T06:38:19;11.20;37.90
54558;DHT22;40452;50.080;20.040;2023-03-17T06:40:46;11.10;37.90
54558;DHT22;40452;50.080;20.040;2023-03-17T06:43:11;11.10;37.90
54558;DHT22;40452;50.080;20.040;2023-03-17T06:45:37;11.00;38.00
54558;DHT22;40452;50.080;20.040;2023-03-17T06:48:03;11.00;38.00
54558;DHT22;40452;50.080;20.040;2023-03-17T06:50:29;11.20;37.70
54558;DHT22;40452;50.080;20.040;2023-03-17T06:52:54;11.20;37.70
54558;DHT22;40452;50.080;20.040;2023-03-17T06:55:20;11.10;37.60
54558;DHT22;40452;50.080;20.040;2023-03-17T15:35:44;20.60;36.20
54558;DHT22;40452;50.080;20.040;2023-03-17T15:38:10;20.60;36.30
54558;DHT22;40452;50.080;20.040;2023-03-17T15:40:36;20.60;36.30
54558;DHT22;40452;50.080;20.040;2023-03-17T15:43:02;20.60;36.30
54558;DHT22;40452;50.080;20.040;2023-03-17T15:45:27;20.50;36.30
54558;DHT22;40452;50.080;20.040;2023-03-17T15:47:53;20.60;36.30
54558;DHT22;40452;50.080;20.040;2023-03-17T15:50:24;20.50;36.30
54558;DHT22;40452;50.080;20.040;2023-03-17T15:52:54;20.60;36.30
54558;DHT22;40452;50.080;20.040;2023-03-17T15:55:28;20.60;36.30
54558;DHT22;40452;50.080;20.040;2023-03-17T15:57:57;20.60;36.30
54558;DHT22;40452;50.080;20.040;2023-03-17T16:00:27;20.50;36.40
54558;DHT22;40452;50.080;20.040;2023-03-17T16:02:55;20.50;36.30
54558;DHT22;40452;50.080;20.040;2023-03-17T16:05:30;20.50;36.30
54558;DHT22;40452;50.080;20.040;2023-03-17T16:07:57;20.50;36.30
54558;DHT22;40452;50.080;20.040;2023-03-17T16:10:26;20.50;36.30
54558;DHT22;40452;50.080;20.040;2023-03-17T16:12:52;20.50;36.30
54558;DHT22;40452;50.080;20.040;2023-03-17T16:15:26;20.50;36.30
54558;DHT22;40452;50.080;20.040;2023-03-17T16:17:55;20.50;36.30
54558;DHT22;40452;50.080;20.040;2023-03-17T16:20:39;20.50;36.30
54558;DHT22;40452;50.080;20.040;2023-03-17T16:23:20;20.50;36.30
54558;DHT22;40452;50.080;20.040;2023-03-17T16:25:46;20.50;36.40
54558;DHT22;40452;50.080;20.040;2023-03-17T16:28:18;20.50;36.40
54558;DHT22;40452;50.080;20.040;2023-03-17T16:30:52;20.50;36.30
54558;DHT22;40452;50.080;20.040;2023-03-17T16:33:21;20.50;36.30
54558;DHT22;40452;50.080;20.040;2023-03-17T16:35:59;20.50;36.30
54558;DHT22;40452;50.080;20.040;2023-03-17T16:38:44;20.50;36.30
54558;DHT22;40452;50.080;20.040;2023-03-17T16:41:25;20.60;36.30
54558;DHT22;40452;50.080;20.040;2023-03-17T16:46:51;20.50;36.30
54558;DHT22;40452;50.080;20.040;2023-03-17T16:52:27;20.50;36.30
54558;DHT22;40452;50.080;20.040;2023-03-17T16:54:59;20.50;36.30
54558;DHT22;40452;50.080;20.040;2023-03-17T16:57:25;20.60;36.40
54558;DHT22;40452;50.080;20.040;2023-03-17T16:59:50;20.50;36.40
54558;DHT22;40452;50.080;20.040;2023-03-17T17:02:16;20.40;36.30
54558;DHT22;40452;50.080;20.040;2023-03-17T17:04:42;20.50;36.40
54558;DHT22;40452;50.080;20.040;2023-03-17T17:07:07;20.50;36.40
54558;DHT22;40452;50.080;20.040;2023-03-17T17:09:36;20.50;36.40
54558;DHT22;40452;50.080;20.040;2023-03-17T17:12:01;20.50;36.40
54558;DHT22;40452;50.080;20.040;2023-03-17T17:14:30;20.40;36.40
54558;DHT22;40452;50.080;20.040;2023-03-17T17:16:56;20.50;36.50
54558;DHT22;40452;50.080;20.040;2023-03-17T17:22:27;20.40;36.40
54558;DHT22;40452;50.080;20.040;2023-03-17T17:24:58;20.50;36.50
54558;DHT22;40452;50.080;20.040;2023-03-17T17:27:29;20.40;36.50
54558;DHT22;40452;50.080;20.040;2023-03-17T17:29:55;20.40;36.60
54558;DHT22;40452;50.080;20.040;2023-03-17T17:32:21;20.50;36.70
54558;DHT22;40452;50.080;20.040;2023-03-17T17:34:57;20.50;36.80
54558;DHT22;40452;50.080;20.040;2023-03-17T17:37:22;20.50;37.00
54558;DHT22;40452;50.080;20.040;2023-03-17T17:39:48;20.50;37.10
54558;DHT22;40452;50.080;20.040;2023-03-17T17:42:13;20.50;37.30
54558;DHT22;40452;50.080;20.040;2023-03-17T17:44:49;20.50;37.40
54558;DHT22;40452;50.080;20.040;2023-03-17T17:47:15;20.50;37.50
54558;DHT22;40452;50.080;20.040;2023-03-17T17:49:41;20.50;37.50
54558;DHT22;40452;50.080;20.040;2023-03-17T17:52:08;20.50;37.60
54558;DHT22;40452;50.080;20.040;2023-03-17T17:54:34;20.50;37.60
54558;DHT22;40452;50.080;20.040;2023-03-17T17:57:03;20.50;37.50
54558;DHT22;40452;50.080;20.040;2023-03-17T17:59:29;20.50;37.50
54558;DHT22;40452;50.080;20.040;2023-03-17T18:01:55;20.50;37.60
54558;DHT22;40452;50.080;20.040;2023-03-17T18:04:20;20.50;37.60
54558;DHT22;40452;50.080;20.040;2023-03-17T18:06:46;20.60;37.60
54558;DHT22;40452;50.080;20.040;2023-03-17T18:09:13;20.50;37.50
54558;DHT22;40452;50.080;20.040;2023-03-17T18:11:38;20.50;37.50
54558;DHT22;40452;50.080;20.040;2023-03-17T18:14:09;20.50;37.60
54558;DHT22;40452;50.080;20.040;2023-03-17T18:16:36;20.40;37.50
54558;DHT22;40452;50.080;20.040;2023-03-17T18:19:03;20.50;37.70
54558;DHT22;40452;50.080;20.040;2023-03-17T18:21:29;20.50;37.70
54558;DHT22;40452;50.080;20.040;2023-03-17T18:23:55;20.50;37.70
54558;DHT22;40452;50.080;20.040;2023-03-17T18:26:21;20.50;37.70
54558;DHT22;40452;50.080;20.040;2023-03-17T18:28:47;20.50;37.80
54558;DHT22;40452;50.080;20.040;2023-03-17T18:31:23;20.50;37.90
54558;DHT22;40452;50.080;20.040;2023-03-17T18:33:53;20.50;37.80
54558;DHT22;40452;50.080;20.040;2023-03-17T18:36:20;20.50;37.80
54558;DHT22;40452;50.080;20.040;2023-03-17T18:38:46;20.50;37.80
54558;DHT22;40452;50.080;20.040;2023-03-17T18:41:12;20.50;37.80
54558;DHT22;40452;50.080;20.040;2023-03-17T18:43:38;20.50;37.80
54558;DHT22;40452;50.080;20.040;2023-03-17T18:46:05;20.50;37.80
54558;DHT22;40452;50.080;20.040;2023-03-17T18:48:31;20.50;37.80
54558;DHT22;40452;50.080;20.040;2023-03-17T18:50:57;20.40;37.40
54558;DHT22;40452;50.080;20.040;2023-03-17T18:53:22;20.40;37.70
54558;DHT22;40452;50.080;20.040;2023-03-17T18:55:48;20.40;37.70
54558;DHT22;40452;50.080;20.040;2023-03-17T18:58:13;20.50;37.70
54558;DHT22;40452;50.080;20.040;2023-03-17T19:00:39;20.50;37.70
54558;DHT22;40452;50.080;20.040;2023-03-17T19:03:05;20.50;37.70
54558;DHT22;40452;50.080;20.040;2023-03-17T19:05:35;20.50;37.70
54558;DHT22;40452;50.080;20.040;2023-03-17T19:08:01;20.50;37.80
54558;DHT22;40452;50.080;20.040;2023-03-17T19:10:27;20.60;37.90
54558;DHT22;40452;50.080;20.040;2023-03-17T19:12:53;20.50;37.90
54558;DHT22;40452;50.080;20.040;2023-03-17T19:15:19;20.50;38.00
54558;DHT22;40452;50.080;20.040;2023-03-17T19:17:45;20.50;38.10
54558;DHT22;40452;50.080;20.040;2023-03-17T19:20:12;20.50;38.10
54558;DHT22;40452;50.080;20.040;2023-03-17T19:22:38;20.60;38.20
54558;DHT22;40452;50.080;20.040;2023-03-17T19:25:04;20.60;38.30
54558;DHT22;40452;50.080;20.040;2023-03-17T19:27:30;20.60;38.20
54558;DHT22;40452;50.080;20.040;2023-03-17T19:29:56;20.60;38.20
54558;DHT22;40452;50.080;20.040;2023-03-17T19:32:21;20.60;38.30
54558;DHT22;40452;50.080;20.040;2023-03-17T19:34:47;20.60;38.20
54558;DHT22;40452;50.080;20.040;2023-03-17T19:37:13;20.60;38.30
54558;DHT22;40452;50.080;20.040;2023-03-17T19:39:38;20.70;38.50
54558;DHT22;40452;50.080;20.040;2023-03-17T19:42:04;20.70;38.40
54558;DHT22;40452;50.080;20.040;2023-03-17T19:44:30;20.70;38.40
54558;DHT22;40452;50.080;20.040;2023-03-17T19:46:55;20.70;38.50
54558;DHT22;40452;50.080;20.040;2023-03-17T19:49:21;20.70;38.50
54558;DHT22;40452;50.080;20.040;2023-03-17T19:51:47;20.70;38.40
54558;DHT22;40452;50.080;20.040;2023-03-17T19:54:13;20.70;38.40
54558;DHT22;40452;50.080;20.040;2023-03-17T19:56:39;20.70;38.40
54558;DHT22;40452;50.080;20.040;2023-03-17T19:59:05;20.70;38.40
54558;DHT22;40452;50.080;20.040;2023-03-17T20:01:33;20.80;38.40
54558;DHT22;40452;50.080;20.040;2023-03-17T20:04:02;20.70;38.40
54558;DHT22;40452;50.080;20.040;2023-03-17T20:06:30;20.80;38.40
54558;DHT22;40452;50.080;20.040;2023-03-17T20:08:56;20.80;38.40
54558;DHT22;40452;50.080;20.040;2023-03-17T20:11:21;20.70;38.40
54558;DHT22;40452;50.080;20.040;2023-03-17T20:13:47;20.70;38.30
54558;DHT22;40452;50.080;20.040;2023-03-17T20:16:13;20.70;38.30
54558;DHT22;40452;50.080;20.040;2023-03-17T20:18:39;20.70;38.30
54558;DHT22;40452;50.080;20.040;2023-03-17T20:21:04;20.70;38.20
54558;DHT22;40452;50.080;20.040;2023-03-17T20:23:32;20.70;38.20
54558;DHT22;40452;50.080;20.040;2023-03-17T20:25:57;20.70;38.20
54558;DHT22;40452;50.080;20.040;2023-03-17T20:28:23;20.70;38.20
54558;DHT22;40452;50.080;20.040;2023-03-17T20:30:49;20.70;38.20
54558;DHT22;40452;50.080;20.040;2023-03-17T20:33:15;20.70;38.30
54558;DHT22;40452;50.080;20.040;2023-03-17T20:35:43;20.70;38.30
54558;DHT22;40452;50.080;20.040;2023-03-17T20:38:11;20.70;38.30
54558;DHT22;40452;50.080;20.040;2023-03-17T20:40:38;20.80;38.30
54558;DHT22;40452;50.080;20.040;2023-03-17T20:43:04;20.80;38.40
